EWG72E EDDK-LSZH
Flight info
| Callsign | EWG72E |
|---|---|
| Flight time | 0h 43m |
| Altitude | 31000 |
| Route | KUMIK8F/13L KUMIK Y854 BOMBI T721 RILAX |
| Aircraft | A319/M-SDE3FGHIRWY/LB1 |
Departure
| Time | 2026-02-18 21:35 |
|---|---|
| Airport | Cologne Bonn Airport (EDDK) |
Arrival
| Time | 2026-02-18 22:19 |
|---|---|
| Airport | Zürich Airport (LSZH) |
| Time | Latitude | Longitude | Altitude | Speed | Heading |
|---|---|---|---|---|---|
| 2026-02-18 21:13 | 50.87638 | 7.12293 | 234 ft | 0 kts | 52° |
| 2026-02-18 21:25 | 50.87634 | 7.12284 | 232 ft | 2 kts | 52° |
| 2026-02-18 21:25 | 50.87622 | 7.12260 | 235 ft | 3 kts | 52° |
| 2026-02-18 21:26 | 50.87610 | 7.12235 | 232 ft | 3 kts | 63° |
| 2026-02-18 21:26 | 50.87603 | 7.12205 | 235 ft | 3 kts | 86° |
| 2026-02-18 21:26 | 50.87604 | 7.12175 | 235 ft | 3 kts | 112° |
| 2026-02-18 21:26 | 50.87607 | 7.12163 | 234 ft | 0 kts | 117° |
| 2026-02-18 21:29 | 50.87607 | 7.12164 | 234 ft | 0 kts | 117° |
| 2026-02-18 21:29 | 50.87600 | 7.12186 | 236 ft | 4 kts | 117° |
| 2026-02-18 21:29 | 50.87577 | 7.12255 | 232 ft | 9 kts | 117° |
| 2026-02-18 21:30 | 50.87543 | 7.12360 | 232 ft | 11 kts | 116° |
| 2026-02-18 21:30 | 50.87591 | 7.12459 | 232 ft | 15 kts | 19° |
| 2026-02-18 21:30 | 50.87695 | 7.12514 | 232 ft | 15 kts | 18° |
| 2026-02-18 21:30 | 50.87757 | 7.12571 | 232 ft | 9 kts | 56° |
| 2026-02-18 21:31 | 50.87776 | 7.12685 | 234 ft | 13 kts | 76° |
| 2026-02-18 21:31 | 50.87801 | 7.12842 | 232 ft | 16 kts | 76° |
| 2026-02-18 21:31 | 50.87823 | 7.12977 | 237 ft | 8 kts | 76° |
| 2026-02-18 21:31 | 50.87825 | 7.12992 | 237 ft | 0 kts | 76° |
| 2026-02-18 21:33 | 50.87825 | 7.12993 | 237 ft | 1 kts | 76° |
| 2026-02-18 21:33 | 50.87832 | 7.13037 | 238 ft | 7 kts | 76° |
| 2026-02-18 21:33 | 50.87847 | 7.13132 | 239 ft | 12 kts | 76° |
| 2026-02-18 21:34 | 50.87837 | 7.13212 | 239 ft | 0 kts | 136° |
| 2026-02-18 21:34 | 50.87763 | 7.13322 | 239 ft | 43 kts | 137° |
| 2026-02-18 21:35 | 50.87376 | 7.13880 | 242 ft | 105 kts | 137° |
| 2026-02-18 21:35 | 50.86716 | 7.14834 | 355 ft | 142 kts | 136° |
| 2026-02-18 21:35 | 50.85996 | 7.15860 | 1005 ft | 139 kts | 135° |
| 2026-02-18 21:35 | 50.85273 | 7.16882 | 1713 ft | 142 kts | 136° |
| 2026-02-18 21:36 | 50.84483 | 7.17996 | 2091 ft | 164 kts | 136° |
| 2026-02-18 21:36 | 50.83574 | 7.19277 | 2668 ft | 182 kts | 137° |
| 2026-02-18 21:36 | 50.82612 | 7.20631 | 3638 ft | 187 kts | 137° |
| 2026-02-18 21:36 | 50.81873 | 7.22371 | 4476 ft | 200 kts | 115° |
| 2026-02-18 21:37 | 50.80988 | 7.26863 | 5764 ft | 233 kts | 128° |
| 2026-02-18 21:37 | 50.79648 | 7.28353 | 6432 ft | 246 kts | 161° |
| 2026-02-18 21:37 | 50.77964 | 7.29047 | 7305 ft | 253 kts | 165° |
| 2026-02-18 21:38 | 50.76243 | 7.29731 | 8212 ft | 258 kts | 166° |
| 2026-02-18 21:38 | 50.74481 | 7.30458 | 9116 ft | 264 kts | 166° |
| 2026-02-18 21:38 | 50.72688 | 7.31223 | 9949 ft | 272 kts | 166° |
| 2026-02-18 21:38 | 50.70788 | 7.32053 | 10291 ft | 295 kts | 166° |
| 2026-02-18 21:39 | 50.68744 | 7.32963 | 10737 ft | 312 kts | 166° |
| 2026-02-18 21:39 | 50.66636 | 7.33918 | 11436 ft | 319 kts | 166° |
| 2026-02-18 21:39 | 50.64483 | 7.34904 | 12182 ft | 325 kts | 166° |
| 2026-02-18 21:39 | 50.62302 | 7.35904 | 12935 ft | 330 kts | 166° |
| 2026-02-18 21:40 | 50.60081 | 7.36918 | 13658 ft | 334 kts | 167° |
| 2026-02-18 21:40 | 50.57833 | 7.37945 | 14290 ft | 338 kts | 167° |
| 2026-02-18 21:40 | 50.55559 | 7.38987 | 14934 ft | 342 kts | 167° |
| 2026-02-18 21:40 | 50.53237 | 7.39863 | 15569 ft | 344 kts | 174° |
| 2026-02-18 21:41 | 50.48466 | 7.40868 | 16881 ft | 350 kts | 175° |
| 2026-02-18 21:41 | 50.46044 | 7.41541 | 17567 ft | 355 kts | 172° |
| 2026-02-18 21:41 | 50.43624 | 7.42414 | 18223 ft | 359 kts | 170° |
| 2026-02-18 21:42 | 50.41199 | 7.43449 | 18800 ft | 363 kts | 168° |
| 2026-02-18 21:42 | 50.38761 | 7.44585 | 19387 ft | 367 kts | 167° |
| 2026-02-18 21:42 | 50.36274 | 7.45779 | 19980 ft | 371 kts | 167° |
| 2026-02-18 21:42 | 50.33791 | 7.46971 | 20566 ft | 375 kts | 167° |
| 2026-02-18 21:43 | 50.31285 | 7.48156 | 21135 ft | 378 kts | 167° |
| 2026-02-18 21:43 | 50.28786 | 7.49318 | 21697 ft | 382 kts | 167° |
| 2026-02-18 21:43 | 50.26188 | 7.50512 | 22263 ft | 385 kts | 167° |
| 2026-02-18 21:43 | 50.23605 | 7.51690 | 22833 ft | 389 kts | 167° |
| 2026-02-18 21:44 | 50.20995 | 7.52875 | 23374 ft | 393 kts | 167° |
| 2026-02-18 21:44 | 50.18359 | 7.54071 | 23830 ft | 396 kts | 167° |
| 2026-02-18 21:44 | 50.15710 | 7.55275 | 24292 ft | 398 kts | 168° |
| 2026-02-18 21:44 | 50.13039 | 7.56486 | 24774 ft | 401 kts | 168° |
| 2026-02-18 21:45 | 50.07661 | 7.58918 | 25723 ft | 405 kts | 168° |
| 2026-02-18 21:45 | 50.04941 | 7.60146 | 26193 ft | 407 kts | 168° |
| 2026-02-18 21:45 | 50.02211 | 7.61379 | 26658 ft | 409 kts | 168° |
| 2026-02-18 21:46 | 49.99473 | 7.62609 | 27130 ft | 412 kts | 168° |
| 2026-02-18 21:46 | 49.96711 | 7.63851 | 27583 ft | 414 kts | 169° |
| 2026-02-18 21:46 | 49.93939 | 7.65097 | 28041 ft | 416 kts | 169° |
| 2026-02-18 21:46 | 49.91151 | 7.66354 | 28509 ft | 418 kts | 169° |
| 2026-02-18 21:47 | 49.88343 | 7.67622 | 28945 ft | 421 kts | 169° |
| 2026-02-18 21:47 | 49.85529 | 7.68892 | 29395 ft | 423 kts | 169° |
| 2026-02-18 21:47 | 49.82697 | 7.70162 | 29824 ft | 425 kts | 169° |
| 2026-02-18 21:47 | 49.79845 | 7.71432 | 30180 ft | 427 kts | 169° |
| 2026-02-18 21:48 | 49.76982 | 7.72705 | 30510 ft | 430 kts | 170° |
| 2026-02-18 21:48 | 49.74112 | 7.73984 | 30725 ft | 431 kts | 170° |
| 2026-02-18 21:48 | 49.71266 | 7.75264 | 30761 ft | 419 kts | 170° |
| 2026-02-18 21:49 | 49.62924 | 7.79006 | 30747 ft | 424 kts | 171° |
| 2026-02-18 21:49 | 49.57225 | 7.81520 | 30745 ft | 427 kts | 171° |
| 2026-02-18 21:50 | 49.51484 | 7.84064 | 30737 ft | 427 kts | 171° |
| 2026-02-18 21:50 | 49.45811 | 7.86571 | 30742 ft | 426 kts | 171° |
| 2026-02-18 21:51 | 49.40067 | 7.89098 | 30739 ft | 427 kts | 171° |
| 2026-02-18 21:51 | 49.34367 | 7.91609 | 30740 ft | 426 kts | 171° |
| 2026-02-18 21:52 | 49.28666 | 7.94107 | 30740 ft | 425 kts | 171° |
| 2026-02-18 21:52 | 49.22982 | 7.96588 | 30729 ft | 425 kts | 171° |
| 2026-02-18 21:53 | 49.14452 | 8.00314 | 30720 ft | 425 kts | 171° |
| 2026-02-18 21:54 | 49.08771 | 8.02800 | 30714 ft | 424 kts | 171° |
| 2026-02-18 21:54 | 49.03097 | 8.05263 | 30703 ft | 424 kts | 171° |
| 2026-02-18 21:55 | 48.97417 | 8.07710 | 30705 ft | 424 kts | 171° |
| 2026-02-18 21:55 | 48.92694 | 8.09744 | 30704 ft | 424 kts | 171° |
| 2026-02-18 21:56 | 48.87009 | 8.12189 | 30702 ft | 425 kts | 171° |
| 2026-02-18 21:56 | 48.81326 | 8.14632 | 30701 ft | 425 kts | 171° |
| 2026-02-18 21:57 | 48.72786 | 8.18290 | 30699 ft | 425 kts | 171° |
| 2026-02-18 21:57 | 48.67088 | 8.20730 | 30698 ft | 426 kts | 171° |
| 2026-02-18 21:58 | 48.61379 | 8.23156 | 30679 ft | 426 kts | 171° |
| 2026-02-18 21:58 | 48.55668 | 8.25586 | 30687 ft | 427 kts | 171° |
| 2026-02-18 21:59 | 48.49950 | 8.28023 | 30706 ft | 427 kts | 172° |
| 2026-02-18 21:59 | 48.44222 | 8.30450 | 30710 ft | 428 kts | 172° |
| 2026-02-18 22:00 | 48.38490 | 8.32879 | 30716 ft | 429 kts | 172° |
| 2026-02-18 22:00 | 48.32757 | 8.35302 | 30321 ft | 425 kts | 171° |
| 2026-02-18 22:01 | 48.27109 | 8.37681 | 29179 ft | 419 kts | 171° |
| 2026-02-18 22:01 | 48.24314 | 8.38848 | 28568 ft | 416 kts | 171° |
| 2026-02-18 22:01 | 48.21543 | 8.40005 | 27994 ft | 412 kts | 171° |
| 2026-02-18 22:02 | 48.18786 | 8.41159 | 27434 ft | 409 kts | 171° |
| 2026-02-18 22:02 | 48.16056 | 8.42300 | 26852 ft | 406 kts | 171° |
| 2026-02-18 22:02 | 48.13343 | 8.43434 | 26268 ft | 403 kts | 171° |
| 2026-02-18 22:02 | 48.10651 | 8.44559 | 25709 ft | 400 kts | 171° |
| 2026-02-18 22:03 | 48.08018 | 8.45660 | 25194 ft | 397 kts | 171° |
| 2026-02-18 22:03 | 48.05366 | 8.46767 | 24697 ft | 394 kts | 171° |
| 2026-02-18 22:03 | 48.02730 | 8.47865 | 24210 ft | 392 kts | 170° |
| 2026-02-18 22:03 | 48.00116 | 8.48951 | 23735 ft | 390 kts | 170° |
| 2026-02-18 22:04 | 47.97507 | 8.50032 | 23257 ft | 387 kts | 170° |
| 2026-02-18 22:04 | 47.94898 | 8.50848 | 22735 ft | 379 kts | 179° |
| 2026-02-18 22:04 | 47.92302 | 8.50946 | 22214 ft | 369 kts | 189° |
| 2026-02-18 22:04 | 47.89782 | 8.50488 | 21684 ft | 364 kts | 193° |
| 2026-02-18 22:05 | 47.85553 | 8.49646 | 20817 ft | 359 kts | 192° |
| 2026-02-18 22:05 | 47.83053 | 8.49478 | 20294 ft | 362 kts | 181° |
| 2026-02-18 22:05 | 47.80556 | 8.50100 | 19767 ft | 367 kts | 169° |
| 2026-02-18 22:06 | 47.78170 | 8.51491 | 19264 ft | 369 kts | 160° |
| 2026-02-18 22:06 | 47.75853 | 8.53104 | 18763 ft | 366 kts | 160° |
| 2026-02-18 22:06 | 47.73552 | 8.54693 | 18276 ft | 364 kts | 160° |
| 2026-02-18 22:06 | 47.71478 | 8.56120 | 17774 ft | 362 kts | 160° |
| 2026-02-18 22:07 | 47.69201 | 8.57687 | 17197 ft | 359 kts | 160° |
| 2026-02-18 22:07 | 47.66946 | 8.59238 | 16661 ft | 356 kts | 160° |
| 2026-02-18 22:07 | 47.64713 | 8.60777 | 16125 ft | 353 kts | 160° |
| 2026-02-18 22:07 | 47.62493 | 8.62312 | 15608 ft | 350 kts | 160° |
| 2026-02-18 22:08 | 47.60297 | 8.63831 | 15098 ft | 347 kts | 160° |
| 2026-02-18 22:08 | 47.58114 | 8.65338 | 14617 ft | 345 kts | 160° |
| 2026-02-18 22:08 | 47.55951 | 8.66828 | 14137 ft | 342 kts | 160° |
| 2026-02-18 22:08 | 47.53839 | 8.68279 | 13680 ft | 340 kts | 161° |
| 2026-02-18 22:09 | 47.49578 | 8.71199 | 12651 ft | 335 kts | 161° |
| 2026-02-18 22:09 | 47.47474 | 8.72641 | 12136 ft | 332 kts | 161° |
| 2026-02-18 22:09 | 47.45379 | 8.74073 | 11631 ft | 330 kts | 161° |
| 2026-02-18 22:10 | 47.43276 | 8.75509 | 11130 ft | 328 kts | 161° |
| 2026-02-18 22:10 | 47.41214 | 8.76917 | 10635 ft | 325 kts | 161° |
| 2026-02-18 22:10 | 47.39205 | 8.78288 | 10269 ft | 320 kts | 161° |
| 2026-02-18 22:10 | 47.37216 | 8.79649 | 10144 ft | 308 kts | 161° |
| 2026-02-18 22:11 | 47.35285 | 8.80973 | 10021 ft | 297 kts | 161° |
| 2026-02-18 22:11 | 47.33431 | 8.82241 | 9895 ft | 288 kts | 161° |
| 2026-02-18 22:11 | 47.31640 | 8.83462 | 9767 ft | 280 kts | 162° |
| 2026-02-18 22:11 | 47.29875 | 8.84493 | 9634 ft | 263 kts | 176° |
| 2026-02-18 22:12 | 47.28154 | 8.84469 | 9483 ft | 238 kts | 200° |
| 2026-02-18 22:12 | 47.26703 | 8.83482 | 9151 ft | 226 kts | 221° |
| 2026-02-18 22:12 | 47.25669 | 8.81792 | 8695 ft | 222 kts | 242° |
| 2026-02-18 22:12 | 47.25004 | 8.79732 | 8227 ft | 224 kts | 246° |
| 2026-02-18 22:13 | 47.23684 | 8.75523 | 7455 ft | 228 kts | 245° |
| 2026-02-18 22:13 | 47.23104 | 8.73356 | 7163 ft | 227 kts | 260° |
| 2026-02-18 22:13 | 47.23325 | 8.71095 | 6908 ft | 228 kts | 295° |
| 2026-02-18 22:14 | 47.24434 | 8.69454 | 6666 ft | 231 kts | 331° |
| 2026-02-18 22:14 | 47.25921 | 8.68527 | 6371 ft | 232 kts | 335° |
| 2026-02-18 22:14 | 47.27396 | 8.67545 | 5998 ft | 233 kts | 334° |
| 2026-02-18 22:14 | 47.28863 | 8.66532 | 5606 ft | 232 kts | 334° |
| 2026-02-18 22:15 | 47.30318 | 8.65523 | 5217 ft | 230 kts | 334° |
| 2026-02-18 22:15 | 47.31764 | 8.64516 | 4711 ft | 230 kts | 334° |
| 2026-02-18 22:15 | 47.33198 | 8.63505 | 4262 ft | 227 kts | 334° |
| 2026-02-18 22:15 | 47.34592 | 8.62517 | 3905 ft | 217 kts | 335° |
| 2026-02-18 22:16 | 47.35914 | 8.61604 | 3605 ft | 203 kts | 335° |
| 2026-02-18 22:16 | 47.37155 | 8.60753 | 3303 ft | 191 kts | 336° |
| 2026-02-18 22:16 | 47.38308 | 8.59962 | 3023 ft | 174 kts | 336° |
| 2026-02-18 22:16 | 47.39338 | 8.59253 | 2764 ft | 153 kts | 336° |
| 2026-02-18 22:17 | 47.41118 | 8.58031 | 2329 ft | 134 kts | 336° |
| 2026-02-18 22:17 | 47.41953 | 8.57460 | 2123 ft | 131 kts | 335° |
| 2026-02-18 22:17 | 47.42772 | 8.56902 | 1935 ft | 129 kts | 335° |
| 2026-02-18 22:18 | 47.43581 | 8.56342 | 1763 ft | 128 kts | 335° |
| 2026-02-18 22:18 | 47.44386 | 8.55789 | 1577 ft | 128 kts | 335° |
| 2026-02-18 22:18 | 47.45186 | 8.55236 | 1409 ft | 124 kts | 335° |
| 2026-02-18 22:18 | 47.45837 | 8.54790 | 1388 ft | 69 kts | 335° |
| 2026-02-18 22:19 | 47.46013 | 8.54670 | 1389 ft | 1 kts | 335° |
| 2026-02-18 22:19 | 47.46066 | 8.54635 | 1387 ft | 12 kts | 337° |
| 2026-02-18 22:19 | 47.46095 | 8.54684 | 1387 ft | 9 kts | 117° |
| 2026-02-18 22:19 | 47.46052 | 8.54766 | 1386 ft | 10 kts | 128° |
| 2026-02-18 22:20 | 47.46014 | 8.54846 | 1386 ft | 9 kts | 123° |
| 2026-02-18 22:20 | 47.45987 | 8.54906 | 1395 ft | 5 kts | 123° |
| 2026-02-18 22:20 | 47.45970 | 8.54945 | 1400 ft | 4 kts | 123° |
| 2026-02-18 22:20 | 47.45944 | 8.54990 | 1396 ft | 7 kts | 141° |
| 2026-02-18 22:21 | 47.45845 | 8.55064 | 1401 ft | 10 kts | 154° |
| 2026-02-18 22:21 | 47.45773 | 8.55111 | 1401 ft | 12 kts | 155° |
| 2026-02-18 22:21 | 47.45692 | 8.55167 | 1399 ft | 14 kts | 155° |
| 2026-02-18 22:22 | 47.45602 | 8.55231 | 1404 ft | 15 kts | 154° |
| 2026-02-18 22:22 | 47.45543 | 8.55289 | 1398 ft | 9 kts | 118° |
| 2026-02-18 22:22 | 47.45534 | 8.55387 | 1401 ft | 10 kts | 96° |
| 2026-02-18 22:22 | 47.45527 | 8.55487 | 1405 ft | 8 kts | 96° |
| 2026-02-18 22:23 | 47.45522 | 8.55554 | 1406 ft | 5 kts | 96° |
| 2026-02-18 22:23 | 47.45517 | 8.55623 | 1412 ft | 9 kts | 96° |
| 2026-02-18 22:23 | 47.45508 | 8.55733 | 1407 ft | 11 kts | 106° |
| 2026-02-18 22:23 | 47.45447 | 8.55750 | 1407 ft | 5 kts | 186° |
| 2026-02-18 22:24 | 47.45430 | 8.55747 | 1407 ft | 0 kts | 186° |